createdAt,value
2018-02-24T00:01:48.487Z,7.78
2018-02-24T00:04:16.790Z,12.05
2018-02-24T00:06:44.316Z,9.75
2018-02-24T00:09:12.590Z,12.07
2018-02-24T00:11:40.112Z,9.10
2018-02-24T00:14:07.612Z,9.02
2018-02-24T00:16:36.165Z,10.77
2018-02-24T00:19:03.708Z,10.57
2018-02-24T00:21:31.238Z,9.30
2018-02-24T00:23:58.744Z,11.63
2018-02-24T00:26:26.315Z,8.20
2018-02-24T00:28:54.080Z,12.75
2018-02-24T00:31:22.371Z,10.23
2018-02-24T00:33:50.635Z,10.07
2018-02-24T00:36:18.122Z,11.02
2018-02-24T00:38:45.625Z,6.43
2018-02-24T00:41:13.128Z,9.95
2018-02-24T00:43:40.599Z,7.78
2018-02-24T00:46:08.143Z,10.23
2018-02-24T00:48:36.709Z,7.93
2018-02-24T00:51:04.189Z,8.57
2018-02-24T00:53:31.676Z,10.95
2018-02-24T00:55:59.211Z,11.52
2018-02-24T00:58:26.762Z,9.27
2018-02-24T01:00:55.012Z,9.05
2018-02-24T01:03:22.518Z,9.05
2018-02-24T01:05:50.033Z,10.60
2018-02-24T01:08:17.507Z,8.85
2018-02-24T01:10:45.052Z,11.02
2018-02-24T01:13:13.320Z,8.55
2018-02-24T01:15:40.801Z,7.43
2018-02-24T01:18:09.126Z,8.45
2018-02-24T01:20:36.656Z,10.80
2018-02-24T01:23:04.199Z,6.25
2018-02-24T01:25:31.670Z,7.97
2018-02-24T01:27:59.180Z,10.05
2018-02-24T01:30:27.063Z,6.30
2018-02-24T01:32:54.588Z,7.10
2018-02-24T01:35:22.085Z,8.55
2018-02-24T01:37:50.356Z,7.95
2018-02-24T01:40:18.627Z,8.60
2018-02-24T01:42:46.293Z,10.13
2018-02-24T01:45:13.885Z,8.57
2018-02-24T01:47:41.840Z,10.02
2018-02-24T01:50:09.398Z,8.82
2018-02-24T01:52:36.922Z,5.80
2018-02-24T01:55:04.525Z,10.85
2018-02-24T01:57:32.061Z,8.15
2018-02-24T02:00:00.568Z,7.18
2018-02-24T02:02:28.102Z,9.27
2018-02-24T02:04:56.435Z,10.70
2018-02-24T02:07:25.051Z,11.45
2018-02-24T02:09:52.540Z,11.18
2018-02-24T02:12:20.097Z,12.05
2018-02-24T02:14:47.628Z,9.45
2018-02-24T02:17:15.144Z,12.73
2018-02-24T02:19:42.664Z,13.30
2018-02-24T02:22:10.179Z,9.40
2018-02-24T02:24:38.091Z,10.13
2018-02-24T02:27:05.833Z,13.27
2018-02-24T02:29:33.398Z,11.75
2018-02-24T02:32:01.125Z,13.30
2018-02-24T02:34:28.829Z,12.25
2018-02-24T02:36:57.132Z,10.70
2018-02-24T02:39:24.658Z,12.18
2018-02-24T02:41:53.034Z,11.63
2018-02-24T02:44:22.149Z,7.72
2018-02-24T02:46:49.650Z,10.95
2018-02-24T02:49:17.517Z,11.80
2018-02-24T02:51:45.008Z,11.52
2018-02-24T02:54:12.489Z,9.43
2018-02-24T02:56:40.828Z,7.85
2018-02-24T02:59:08.324Z,10.73
2018-02-24T03:01:36.053Z,10.07
2018-02-24T03:04:03.595Z,8.85
2018-02-24T03:06:31.139Z,10.32
2018-02-24T03:08:58.680Z,10.57
2018-02-24T03:11:26.190Z,8.10
2018-02-24T03:13:53.763Z,9.85
2018-02-24T03:16:22.037Z,11.50
2018-02-24T03:18:49.982Z,12.45
2018-02-24T03:21:17.487Z,10.00
2018-02-24T03:23:44.975Z,8.73
2018-02-24T03:26:12.507Z,8.20
2018-02-24T03:28:40.013Z,9.77
2018-02-24T03:31:07.497Z,8.90
2018-02-24T03:33:35.051Z,8.85
2018-02-24T03:36:02.589Z,10.75
2018-02-24T03:38:30.129Z,11.23
2018-02-24T03:40:57.634Z,11.90
2018-02-24T03:43:25.162Z,8.35
2018-02-24T03:48:54.892Z,9.52
2018-02-24T03:51:22.372Z,7.40
2018-02-24T03:53:49.829Z,10.35
2018-02-24T03:56:17.352Z,8.38
2018-02-24T03:59:03.915Z,9.68
2018-02-24T04:01:31.431Z,7.28
2018-02-24T04:04:19.453Z,10.00
2018-02-24T04:06:46.978Z,8.48
2018-02-24T04:09:15.313Z,11.77
2018-02-24T04:11:42.867Z,6.45
2018-02-24T04:14:11.163Z,6.72
2018-02-24T04:16:38.674Z,10.95
2018-02-24T04:19:06.176Z,10.48
2018-02-24T04:21:33.714Z,4.57
2018-02-24T04:24:01.305Z,9.75
2018-02-24T04:26:32.836Z,9.68
2018-02-24T04:29:00.336Z,8.63
2018-02-24T04:31:27.868Z,9.20
2018-02-24T04:33:55.367Z,8.05
2018-02-24T04:36:22.896Z,9.98
2018-02-24T04:38:50.408Z,10.20
2018-02-24T04:41:18.692Z,10.52
2018-02-24T04:43:46.221Z,10.20
2018-02-24T04:46:13.742Z,11.00
2018-02-24T04:48:41.242Z,11.88
2018-02-24T04:51:08.731Z,10.63
2018-02-24T04:53:36.258Z,11.98
2018-02-24T04:56:03.769Z,8.85
2018-02-24T04:58:32.047Z,10.90
2018-02-24T05:00:59.594Z,9.02
2018-02-24T05:03:27.066Z,9.70
2018-02-24T05:05:54.551Z,11.35
2018-02-24T05:08:22.054Z,10.23
2018-02-24T05:10:49.531Z,10.40
2018-02-24T05:13:17.057Z,11.57
2018-02-24T05:15:44.543Z,7.50
2018-02-24T05:18:12.440Z,9.82
2018-02-24T05:20:40.356Z,9.70
2018-02-24T05:23:08.596Z,12.15
2018-02-24T05:25:36.117Z,9.98
2018-02-24T05:28:03.648Z,10.90
2018-02-24T05:30:31.178Z,9.57
2018-02-24T05:32:58.671Z,10.02
2018-02-24T05:35:26.170Z,10.25
2018-02-24T05:37:54.432Z,11.10
2018-02-24T05:40:22.693Z,6.65
2018-02-24T05:42:50.206Z,9.10
2018-02-24T05:45:17.703Z,8.00
2018-02-24T05:47:45.196Z,10.43
2018-02-24T05:50:12.715Z,9.07
2018-02-24T05:52:40.477Z,9.93
2018-02-24T05:55:07.977Z,8.95
2018-02-24T05:57:36.286Z,10.40
2018-02-24T06:00:03.799Z,10.55
2018-02-24T06:02:31.318Z,7.97
2018-02-24T06:04:59.562Z,10.57
2018-02-24T06:07:27.082Z,10.00
2018-02-24T06:09:54.611Z,7.80
2018-02-24T06:12:22.104Z,9.05
2018-02-24T06:14:49.602Z,9.02
2018-02-24T06:17:17.101Z,10.43
2018-02-24T06:19:44.620Z,9.90
2018-02-24T06:22:12.123Z,6.40
2018-02-24T06:24:39.603Z,5.07
2018-02-24T06:27:07.330Z,8.13
2018-02-24T06:29:34.808Z,7.12
2018-02-24T06:32:03.901Z,9.27
2018-02-24T06:34:33.206Z,8.90
2018-02-24T06:37:00.959Z,10.80
2018-02-24T06:39:28.691Z,10.80
2018-02-24T06:41:56.512Z,8.07
2018-02-24T06:44:24.832Z,7.90
2018-02-24T06:46:52.538Z,10.10
2018-02-24T06:49:21.133Z,9.75
2018-02-24T06:51:48.684Z,11.27
2018-02-24T06:54:16.951Z,11.18
2018-02-24T06:56:44.447Z,9.82
2018-02-24T06:59:12.169Z,10.85
2018-02-24T07:01:39.733Z,9.98
2018-02-24T07:04:07.274Z,7.45
2018-02-24T07:06:34.789Z,10.35
2018-02-24T07:09:02.315Z,11.25
2018-02-24T07:11:29.856Z,6.90
2018-02-24T07:13:57.346Z,10.07
2018-02-24T07:16:24.939Z,9.68
2018-02-24T07:18:52.448Z,11.02
2018-02-24T07:21:20.011Z,9.13
2018-02-24T07:23:48.356Z,7.65
2018-02-24T07:26:15.885Z,9.35
2018-02-24T07:28:44.207Z,9.85
2018-02-24T07:31:12.588Z,9.18
2018-02-24T07:33:45.537Z,7.37
2018-02-24T07:36:20.947Z,10.75
2018-02-24T07:38:53.689Z,5.93
2018-02-24T07:41:24.439Z,8.32
2018-02-24T07:43:52.935Z,8.38
2018-02-24T07:46:20.568Z,8.13
2018-02-24T07:48:48.059Z,8.20
2018-02-24T07:51:15.599Z,9.48
2018-02-24T07:53:44.042Z,11.52
2018-02-24T07:56:11.553Z,6.97
2018-02-24T07:58:39.086Z,6.25
2018-02-24T08:01:07.229Z,7.90
2018-02-24T08:03:35.393Z,9.60
2018-02-24T08:06:03.019Z,6.87
2018-02-24T08:08:30.548Z,8.65
2018-02-24T08:10:58.045Z,9.10
2018-02-24T08:13:25.563Z,8.27
2018-02-24T08:15:53.083Z,6.90
2018-02-24T08:18:21.184Z,9.73
2018-02-24T08:20:48.704Z,9.38
2018-02-24T08:23:16.345Z,9.07
2018-02-24T08:25:44.606Z,7.65
2018-02-24T08:28:12.874Z,6.68
2018-02-24T08:30:40.415Z,6.60
2018-02-24T08:33:07.911Z,10.25
2018-02-24T08:35:35.676Z,8.05
2018-02-24T08:38:03.164Z,4.97
2018-02-24T08:40:31.068Z,7.05
2018-02-24T08:42:58.827Z,8.85
2018-02-24T08:45:26.560Z,5.75
2018-02-24T08:47:54.080Z,7.32
2018-02-24T08:50:21.625Z,7.93
2018-02-24T08:52:49.150Z,5.75
2018-02-24T08:55:16.615Z,9.50
2018-02-24T08:57:44.376Z,6.70
2018-02-24T09:00:11.859Z,6.10
2018-02-24T09:02:43.703Z,7.40
2018-02-24T09:05:11.211Z,9.00
2018-02-24T09:07:38.967Z,5.67
2018-02-24T09:10:07.277Z,6.93
2018-02-24T09:12:34.782Z,5.50
2018-02-24T09:15:02.265Z,6.13
2018-02-24T09:17:29.785Z,5.63
2018-02-24T09:19:57.278Z,8.30
2018-02-24T09:22:24.815Z,5.43
2018-02-24T09:24:53.091Z,6.73
2018-02-24T09:27:20.730Z,5.77
2018-02-24T09:29:48.235Z,9.13
2018-02-24T09:32:15.751Z,5.50
2018-02-24T09:34:43.296Z,4.77
2018-02-24T09:37:10.805Z,6.00
2018-02-24T09:39:38.541Z,7.03
2018-02-24T09:42:06.867Z,6.50
2018-02-24T09:44:34.555Z,5.50
2018-02-24T09:47:02.112Z,6.73
2018-02-24T09:49:29.612Z,6.37
2018-02-24T09:51:57.868Z,7.10
2018-02-24T09:54:25.381Z,4.90
2018-02-24T09:56:53.102Z,6.83
2018-02-24T09:59:20.670Z,5.33
2018-02-24T10:01:48.935Z,6.83
2018-02-24T10:04:16.467Z,6.23
2018-02-24T10:06:44.142Z,6.00
2018-02-24T10:09:11.923Z,6.30
2018-02-24T10:11:39.452Z,5.73
2018-02-24T10:14:06.966Z,4.90
2018-02-24T10:16:34.772Z,5.03
2018-02-24T10:19:03.078Z,6.50
2018-02-24T10:21:30.572Z,6.00
2018-02-24T10:23:58.075Z,5.53
2018-02-24T10:26:25.578Z,5.87
2018-02-24T10:28:53.083Z,4.33
2018-02-24T10:31:20.573Z,6.80
2018-02-24T10:33:48.789Z,5.17
2018-02-24T10:36:16.277Z,6.80
2018-02-24T10:38:43.891Z,5.50
2018-02-24T10:41:11.761Z,5.87
2018-02-24T10:43:39.292Z,5.23
2018-02-24T10:46:06.837Z,5.10
2018-02-24T10:48:34.580Z,4.83
2018-02-24T10:51:02.066Z,5.30
2018-02-24T10:53:31.217Z,5.87
2018-02-24T10:55:58.728Z,5.90
2018-02-24T10:58:26.624Z,4.23
2018-02-24T11:00:55.115Z,5.57
2018-02-24T11:03:22.826Z,4.77
2018-02-24T11:05:50.443Z,5.23
2018-02-24T11:08:18.926Z,5.03
2018-02-24T11:10:46.618Z,5.00
2018-02-24T11:13:14.198Z,6.13
2018-02-24T11:15:41.725Z,4.33
2018-02-24T11:18:10.063Z,5.23
2018-02-24T11:20:37.670Z,5.57
2018-02-24T11:23:05.219Z,4.90
2018-02-24T11:25:32.828Z,4.83
2018-02-24T11:28:01.090Z,4.67
2018-02-24T11:30:28.638Z,5.77
2018-02-24T11:32:56.104Z,6.47
2018-02-24T11:35:23.579Z,5.33
2018-02-24T11:37:51.831Z,4.50
2018-02-24T11:40:19.308Z,5.17
2018-02-24T11:42:47.591Z,4.60
2018-02-24T11:45:16.301Z,3.90
2018-02-24T11:47:44.139Z,4.83
2018-02-24T11:50:11.770Z,4.13
2018-02-24T11:52:39.314Z,2.97
2018-02-24T11:55:06.931Z,4.60
2018-02-24T11:57:34.468Z,5.57
2018-02-24T12:00:03.636Z,6.70
2018-02-24T12:02:31.141Z,5.07
2018-02-24T12:04:58.637Z,4.10
2018-02-24T12:07:26.129Z,4.43
2018-02-24T12:09:53.669Z,5.13
2018-02-24T12:12:22.002Z,3.20
2018-02-24T12:14:52.364Z,3.87
2018-02-24T12:17:22.377Z,4.87
2018-02-24T12:19:49.885Z,3.63
2018-02-24T12:22:23.699Z,4.63
2018-02-24T12:24:51.220Z,3.40
2018-02-24T12:27:18.886Z,4.10
2018-02-24T12:29:47.513Z,4.33
2018-02-24T12:32:15.987Z,8.00
2018-02-24T12:34:44.932Z,4.90
2018-02-24T12:37:13.219Z,3.63
2018-02-24T12:39:40.810Z,7.53
2018-02-24T12:42:09.148Z,5.90
2018-02-24T12:44:36.653Z,4.67
2018-02-24T12:47:04.132Z,4.83
2018-02-24T12:49:32.953Z,4.77
2018-02-24T12:52:04.004Z,6.23
2018-02-24T13:00:19.380Z,5.80
2018-02-24T13:02:46.884Z,3.70
2018-02-24T13:05:14.503Z,4.50
2018-02-24T13:07:42.069Z,3.70
2018-02-24T13:10:09.652Z,3.03
2018-02-24T13:12:37.931Z,3.13
2018-02-24T13:15:05.430Z,3.53
2018-02-24T13:17:33.257Z,3.90
2018-02-24T13:20:01.562Z,2.40
2018-02-24T13:22:29.119Z,3.13
2018-02-24T13:24:57.369Z,3.30
2018-02-24T13:27:24.867Z,3.13
2018-02-24T13:29:52.422Z,2.63
2018-02-24T13:32:19.956Z,3.47
2018-02-24T13:34:48.191Z,4.87
2018-02-24T13:37:15.700Z,6.50
2018-02-24T13:39:43.231Z,5.50
2018-02-24T13:42:10.740Z,6.30
2018-02-24T13:44:38.244Z,6.93
2018-02-24T13:47:05.732Z,6.20
2018-02-24T13:49:34.244Z,6.37
2018-02-24T13:52:02.826Z,5.73
2018-02-24T13:54:30.649Z,5.30
2018-02-24T13:56:58.223Z,6.87
2018-02-24T13:59:25.764Z,4.93
2018-02-24T14:01:54.258Z,6.23
2018-02-24T14:04:22.612Z,4.80
2018-02-24T14:06:50.122Z,6.40
2018-02-24T14:09:17.679Z,5.03
2018-02-24T14:11:45.280Z,7.00
2018-02-24T14:14:12.843Z,7.10
2018-02-24T14:16:40.407Z,7.03
2018-02-24T14:19:10.168Z,6.20
2018-02-24T14:21:38.508Z,6.60
2018-02-24T14:24:06.808Z,6.30
2018-02-24T14:26:34.410Z,5.50
2018-02-24T14:29:01.946Z,6.13
2018-02-24T14:31:29.504Z,6.40
2018-02-24T14:33:58.125Z,4.97
2018-02-24T14:36:25.794Z,4.83
2018-02-24T14:38:53.478Z,5.87
2018-02-24T14:41:21.794Z,4.20
2018-02-24T14:43:49.354Z,6.10
2018-02-24T14:46:16.892Z,7.20
2018-02-24T14:48:44.745Z,6.30
2018-02-24T14:54:09.944Z,7.07
2018-02-24T14:56:38.232Z,6.60
2018-02-24T14:59:09.588Z,6.50
2018-02-24T15:01:37.188Z,6.00
2018-02-24T15:04:04.782Z,7.30
2018-02-24T15:06:32.294Z,6.00
2018-02-24T15:08:59.835Z,6.90
2018-02-24T15:11:31.096Z,6.00
2018-02-24T15:13:58.633Z,5.00
2018-02-24T15:16:26.555Z,5.50
2018-02-24T15:18:54.476Z,7.17
2018-02-24T15:21:21.990Z,6.10
2018-02-24T15:23:49.519Z,6.40
2018-02-24T15:26:17.699Z,5.33
2018-02-24T15:28:45.402Z,6.47
2018-02-24T15:31:18.675Z,6.73
2018-02-24T15:33:46.232Z,6.67
2018-02-24T15:36:14.012Z,6.23
2018-02-24T15:38:41.713Z,6.90
2018-02-24T15:41:09.246Z,6.00
2018-02-24T15:43:36.753Z,7.03
2018-02-24T15:46:07.095Z,7.10
2018-02-24T15:48:34.578Z,5.13
2018-02-24T15:51:02.180Z,5.60
2018-02-24T15:53:29.724Z,6.83
2018-02-24T15:56:02.286Z,7.60
2018-02-24T15:58:29.791Z,6.43
2018-02-24T16:00:58.189Z,5.47
2018-02-24T16:03:25.660Z,7.10
2018-02-24T16:05:53.162Z,4.90
2018-02-24T16:08:21.890Z,5.30
2018-02-24T16:10:49.423Z,5.53
2018-02-24T16:13:16.972Z,6.27
2018-02-24T16:15:44.507Z,5.73
2018-02-24T16:18:12.046Z,5.50
2018-02-24T16:20:39.576Z,6.80
2018-02-24T16:23:07.175Z,4.73
2018-02-24T16:25:34.663Z,6.87
2018-02-24T16:28:02.160Z,6.50
2018-02-24T16:30:35.714Z,4.37
2018-02-24T16:33:03.980Z,4.23
2018-02-24T16:35:31.476Z,5.67
2018-02-24T16:37:58.982Z,6.13
2018-02-24T16:40:27.262Z,5.03
2018-02-24T16:42:54.754Z,6.17
2018-02-24T16:45:22.252Z,5.60
2018-02-24T16:47:49.759Z,6.73
2018-02-24T16:50:18.049Z,3.60
2018-02-24T16:52:45.524Z,7.00
2018-02-24T16:55:13.106Z,4.40
2018-02-24T16:57:40.608Z,6.10
2018-02-24T17:00:08.090Z,3.70
2018-02-24T17:02:36.046Z,7.33
2018-02-24T17:05:04.940Z,6.70
2018-02-24T17:07:33.316Z,6.30
2018-02-24T17:10:01.599Z,4.60
2018-02-24T17:12:29.598Z,5.60
2018-02-24T17:14:57.175Z,6.87
2018-02-24T17:17:24.779Z,7.00
2018-02-24T17:19:52.827Z,5.43
2018-02-24T17:22:25.574Z,4.37
2018-02-24T17:24:53.923Z,5.55
2018-02-24T17:27:28.387Z,9.53
2018-02-24T17:29:58.111Z,6.70
2018-02-24T17:32:26.191Z,6.90
2018-02-24T17:35:21.148Z,5.00
2018-02-24T17:37:49.225Z,6.27
2018-02-24T17:40:16.851Z,6.75
2018-02-24T17:42:44.416Z,6.55
2018-02-24T17:45:12.379Z,17.83
2018-02-24T17:47:41.648Z,7.75
2018-02-24T17:50:10.011Z,6.97
2018-02-24T17:52:37.552Z,9.60
2018-02-24T17:58:01.862Z,5.50
2018-02-24T18:00:30.545Z,7.87
2018-02-24T18:03:03.790Z,7.75
2018-02-24T18:05:32.312Z,7.00
2018-02-24T18:07:59.908Z,7.93
2018-02-24T18:10:28.251Z,9.18
2018-02-24T18:12:55.868Z,7.05
2018-02-24T18:15:23.575Z,3.70
2018-02-24T18:17:51.259Z,19.42
2018-02-24T18:20:18.896Z,6.55
2018-02-24T18:22:46.579Z,5.87
2018-02-24T18:25:14.641Z,5.53
2018-02-24T18:27:42.153Z,2.75
2018-02-24T18:30:25.944Z,5.15
2018-02-24T18:32:53.461Z,6.95
2018-02-24T18:35:21.811Z,4.87
2018-02-24T18:37:50.149Z,4.40
2018-02-24T18:40:17.686Z,4.05
2018-02-24T18:42:45.180Z,6.18
2018-02-24T18:45:12.820Z,5.40
2018-02-24T18:47:40.502Z,7.82
2018-02-24T18:50:09.548Z,3.58
2018-02-24T18:52:37.116Z,5.10
2018-02-24T18:55:04.645Z,4.32
2018-02-24T18:57:32.210Z,5.45
2018-02-24T18:59:59.955Z,3.17
2018-02-24T19:02:28.247Z,3.55
2018-02-24T19:04:55.813Z,5.68
2018-02-24T19:07:23.404Z,5.45
2018-02-24T19:09:51.059Z,4.20
2018-02-24T19:12:18.631Z,5.70
2018-02-24T19:14:46.182Z,5.07
2018-02-24T19:17:13.776Z,4.35
2018-02-24T19:19:41.343Z,5.40
2018-02-24T19:22:08.819Z,3.42
2018-02-24T19:24:36.802Z,6.10
2018-02-24T19:27:04.734Z,3.35
2018-02-24T19:29:32.273Z,3.50
2018-02-24T19:31:59.772Z,4.28
2018-02-24T19:34:27.313Z,3.85
2018-02-24T19:36:54.839Z,5.43
2018-02-24T19:39:22.340Z,4.35
2018-02-24T19:41:50.640Z,4.40
2018-02-24T19:44:18.291Z,3.70
2018-02-24T19:46:46.654Z,4.85
2018-02-24T19:49:35.109Z,3.65
2018-02-24T19:52:02.725Z,3.22
2018-02-24T19:54:48.688Z,2.65
2018-02-24T20:00:14.599Z,1.98
2018-02-24T20:02:43.029Z,2.62
2018-02-24T20:05:10.626Z,2.78
2018-02-24T20:07:39.066Z,2.92
2018-02-24T20:10:06.633Z,5.72
2018-02-24T20:12:34.221Z,2.30
2018-02-24T20:15:02.878Z,2.17
2018-02-24T20:17:31.274Z,2.60
2018-02-24T20:19:58.897Z,1.92
2018-02-24T20:22:27.097Z,4.68
2018-02-24T20:24:55.879Z,2.50
2018-02-24T20:27:24.191Z,2.55
2018-02-24T20:29:51.715Z,2.30
2018-02-24T20:32:19.291Z,1.62
2018-02-24T20:34:47.055Z,2.50
2018-02-24T20:37:15.956Z,2.20
2018-02-24T20:39:43.513Z,2.95
2018-02-24T20:42:11.035Z,1.83
2018-02-24T20:44:38.602Z,2.60
2018-02-24T20:47:09.420Z,2.65
2018-02-24T20:49:37.016Z,1.75
2018-02-24T20:52:04.775Z,2.12
2018-02-24T20:54:32.336Z,1.70
2018-02-24T20:57:01.901Z,1.85
2018-02-24T20:59:29.561Z,1.87
2018-02-24T21:01:57.344Z,2.08
2018-02-24T21:04:25.167Z,1.62
2018-02-24T21:06:53.828Z,2.90
2018-02-24T21:09:23.354Z,1.67
2018-02-24T21:11:51.768Z,2.40
2018-02-24T21:14:20.040Z,1.48
2018-02-24T21:16:47.552Z,1.80
2018-02-24T21:19:15.280Z,1.90
2018-02-24T21:21:42.770Z,2.62
2018-02-24T21:24:10.298Z,2.28
2018-02-24T21:26:38.526Z,2.40
2018-02-24T21:29:06.022Z,1.48
2018-02-24T21:31:33.520Z,1.83
2018-02-24T21:34:01.766Z,1.60
2018-02-24T21:36:30.043Z,1.90
2018-02-24T21:38:58.434Z,2.20
2018-02-24T21:41:25.994Z,2.17
2018-02-24T21:43:53.558Z,1.70
2018-02-24T21:46:21.113Z,1.83
2018-02-24T21:48:49.440Z,2.95
2018-02-24T21:51:17.060Z,1.35
2018-02-24T21:53:44.640Z,2.15
2018-02-24T21:56:12.310Z,1.30
2018-02-24T21:58:39.822Z,2.53
2018-02-24T22:01:07.389Z,1.67
2018-02-24T22:03:35.280Z,1.95
2018-02-24T22:06:02.833Z,1.73
2018-02-24T22:08:30.360Z,1.60
2018-02-24T22:10:57.853Z,1.73
2018-02-24T22:13:25.767Z,2.90
2018-02-24T22:15:53.302Z,3.22
2018-02-24T22:18:20.868Z,2.17
2018-02-24T22:20:48.469Z,2.37
2018-02-24T22:23:16.757Z,1.83
2018-02-24T22:25:45.228Z,2.58
2018-02-24T22:28:12.790Z,2.17
2018-02-24T22:30:40.360Z,2.45
2018-02-24T22:33:07.937Z,1.92
2018-02-24T22:35:35.436Z,1.95
2018-02-24T22:38:03.345Z,2.65
2018-02-24T22:40:30.848Z,2.15
2018-02-24T22:42:59.032Z,2.10
2018-02-24T22:45:26.677Z,1.67
2018-02-24T22:47:59.882Z,1.92
2018-02-24T22:50:27.448Z,2.00
2018-02-24T22:52:54.994Z,1.20
2018-02-24T22:55:22.534Z,2.45
2018-02-24T22:57:50.099Z,2.17
2018-02-24T23:00:18.374Z,1.90
2018-02-24T23:02:46.831Z,2.45
2018-02-24T23:05:14.381Z,1.85
2018-02-24T23:07:42.685Z,2.10
2018-02-24T23:10:10.976Z,1.67
2018-02-24T23:12:39.521Z,1.73
2018-02-24T23:15:07.066Z,2.45
2018-02-24T23:17:34.581Z,2.05
2018-02-24T23:20:02.107Z,2.55
2018-02-24T23:22:29.612Z,2.35
2018-02-24T23:24:57.120Z,2.33
2018-02-24T23:27:24.652Z,1.55
2018-02-24T23:29:52.158Z,2.22
2018-02-24T23:32:19.682Z,1.40
2018-02-24T23:34:47.941Z,2.35
2018-02-24T23:37:15.854Z,2.47
2018-02-24T23:39:43.338Z,2.35
2018-02-24T23:42:11.605Z,2.20
2018-02-24T23:44:39.962Z,2.50
2018-02-24T23:47:07.424Z,1.55
2018-02-24T23:49:36.121Z,2.28
2018-02-24T23:52:04.999Z,1.95
2018-02-24T23:54:32.667Z,2.37
2018-02-24T23:57:00.980Z,2.90
2018-02-24T23:59:28.476Z,1.77
